首页
METAR-TAF:

METAR-TAF

机场 :

富納富提國際機場

富纳富提, 圖瓦盧

纬度: 08-31S, 经度: 179-13E, 海拔: 1米

当前天气观测

该预报发布于13分钟前的04:00 UTC
风速5节,风向北转西北
温度 28°C
湿度 74%
气压 1008 hPa
能見度: 9000
散云层高于1400英尺, 积雨云.
散云层高于1600英尺, 塔状积云.
阴天层高于10000英尺
小阵雨

METAR: NGFU 230400Z 33005KT 9000 -SHRA SCT014CB SCT016TCU OVC100 28/23 Q1008 RMK CB FROM E TO W

时间: 16:13 (04:13 UTC)

预报

该预报发布于4小时和54分钟前的23:19 UTC
预报有效从23日的 00点(UTC)到 23日的 24点(UTC)
风速8节,风向东北
能见度10公里或以上
散云层高于1800英尺
多云层高于10000英尺
小阵雨
短暂存在
从 23日的 00点(UTC)到 23日的 06点(UTC)
能見度: 3000
多云层高于1200英尺
散云层高于1400英尺, 积雨云.
雷暴, 雨
几率 40% :
短暂存在
从 23日的 06点(UTC)到 23日的 12点(UTC)
能見度: 5000
少量云层高于1800英尺, 积雨云.
雷暴, 雨
几率 30% :
短暂存在
从 23日的 12点(UTC)到 23日的 24点(UTC)
能見度: 5000
少量云层高于1800英尺, 积雨云.
雷暴, 雨

TAF: NGFU 222319Z 2300/2324 04008KT 9999 -SHRA SCT018 BKN100 TEMPO 2300/2306 3000 TSRA BKN012 SCT014CB PROB40 TEMPO 2306/2312 5000 TSRA FEW018CB PROB30 TEMPO 2312/2324 5000 TSRA FEW018CB

超过4000个机场的气象观测和天气预报(METAR&TAF报告)。

可查询的气象台以黄色和红色小点在地图上表示。

将鼠标移到小点上方,可查看气象台名称。

然后点击查看天气观测和预报。

如需切换地图:点击带黑十字的绿色按钮放大地图;点击带横线的绿色按钮缩小地图;或者点击绿色箭头查看邻近地区的地图。


METAR-TAF: